Time;durP1;ratioP1;P1;durP2;ratioP2;P2;SDS_P1;SDS_P2;PMS_P1;PMS_P2;Temp;Humidity;BMP_temperature;BMP_pressure;BME280_temperature;BME280_humidity;BME280_pressure;Samples;Min_cycle;Max_cycle;Signal;HPM_P1;HPM_P2
2024/01/07 00:00:26;;;;;;;2.42;1.10;;;4.20;99.90;;;;;;5000811;28;20045;-82
2024/01/07 00:02:53;;;;;;;1.80;1.00;;;4.10;99.90;;;;;;5014339;28;20057;-83
2024/01/07 00:05:22;;;;;;;1.08;0.70;;;4.10;99.90;;;;;;5021572;28;20052;-82
2024/01/07 00:07:51;;;;;;;2.95;1.02;;;4.10;99.90;;;;;;4995993;28;20511;-82
2024/01/07 00:10:19;;;;;;;1.20;0.70;;;4.00;99.90;;;;;;5017515;28;20053;-82
2024/01/07 00:12:48;;;;;;;2.10;0.90;;;4.00;99.90;;;;;;5033935;28;20091;-81
2024/01/07 00:15:15;;;;;;;1.23;0.85;;;4.00;99.90;;;;;;5017555;28;20049;-81
2024/01/07 00:17:41;;;;;;;3.95;1.00;;;4.00;99.90;;;;;;5004798;28;20052;-81
2024/01/07 00:20:11;;;;;;;3.22;1.10;;;4.00;99.90;;;;;;5015602;28;20698;-82
2024/01/07 00:22:37;;;;;;;2.28;1.08;;;3.90;99.90;;;;;;5033645;28;20056;-82
2024/01/07 00:25:05;;;;;;;2.22;1.02;;;3.90;99.90;;;;;;5023254;28;20041;-83
2024/01/07 00:27:31;;;;;;;6.55;1.10;;;3.90;99.90;;;;;;5003882;28;20052;-83
2024/01/07 00:29:58;;;;;;;1.20;1.02;;;3.80;99.90;;;;;;5033767;28;20057;-82
2024/01/07 00:32:26;;;;;;;1.65;1.02;;;3.80;99.90;;;;;;5022585;28;20769;-83
2024/01/07 00:34:53;;;;;;;2.67;1.20;;;3.70;99.90;;;;;;5042196;28;20065;-82
2024/01/07 00:37:22;;;;;;;3.17;1.27;;;3.70;99.90;;;;;;5014185;28;20065;-82
2024/01/07 00:39:48;;;;;;;3.17;1.10;;;3.70;99.90;;;;;;5024103;28;20056;-82
2024/01/07 00:42:15;;;;;;;2.13;1.48;;;3.60;99.90;;;;;;5024652;28;20148;-82
2024/01/07 00:44:43;;;;;;;1.88;1.00;;;3.60;99.90;;;;;;5021296;28;20491;-82
2024/01/07 00:47:11;;;;;;;2.20;1.20;;;3.60;99.90;;;;;;5012985;28;20103;-82
2024/01/07 00:49:40;;;;;;;1.83;1.00;;;3.60;99.90;;;;;;5038377;28;20049;-81
2024/01/07 00:52:07;;;;;;;2.40;1.00;;;3.50;99.90;;;;;;5041182;28;20048;-82
2024/01/07 00:54:35;;;;;;;2.83;1.27;;;3.50;99.90;;;;;;5003705;28;20050;-82
2024/01/07 00:57:03;;;;;;;2.95;1.00;;;3.50;99.90;;;;;;5020656;28;20049;-82
2024/01/07 00:59:31;;;;;;;3.83;1.13;;;3.40;99.90;;;;;;5018821;28;20068;-82
2024/01/07 01:01:58;;;;;;;1.05;0.65;;;3.40;99.90;;;;;;5040217;28;20102;-83
2024/01/07 01:04:25;;;;;;;1.83;0.90;;;3.40;99.90;;;;;;5024356;28;20060;-83
2024/01/07 01:06:52;;;;;;;1.38;0.82;;;3.30;99.90;;;;;;5035916;28;20055;-82
2024/01/07 01:09:19;;;;;;;1.75;1.30;;;3.30;99.90;;;;;;4990249;28;20049;-82
2024/01/07 01:11:46;;;;;;;1.98;1.10;;;3.30;99.90;;;;;;5007960;28;20055;-82
2024/01/07 01:14:14;;;;;;;2.25;1.45;;;3.30;99.90;;;;;;5020737;28;20488;-82
2024/01/07 01:16:47;;;;;;;2.85;1.00;;;3.20;99.90;;;;;;5036370;28;20477;-82
2024/01/07 01:19:14;;;;;;;;;;;3.20;99.90;;;;;;5012420;28;20136;-82
2024/01/07 01:21:42;;;;;;;2.72;1.25;;;3.20;99.90;;;;;;5028381;28;19967;-82
2024/01/07 01:24:09;;;;;;;3.83;1.15;;;3.10;99.90;;;;;;5040710;28;20064;-82
2024/01/07 01:26:36;;;;;;;1.52;0.80;;;3.10;99.90;;;;;;5007449;28;20049;-81
2024/01/07 01:29:03;;;;;;;3.83;1.10;;;3.10;99.90;;;;;;5021963;28;20060;-82
2024/01/07 01:31:30;;;;;;;1.92;1.10;;;3.10;99.90;;;;;;5036974;28;20126;-82
2024/01/07 01:33:57;;;;;;;3.53;1.30;;;3.10;99.90;;;;;;5021108;28;20059;-82
2024/01/07 01:36:24;;;;;;;1.55;1.00;;;3.10;99.90;;;;;;5006698;28;20091;-83
2024/01/07 01:38:52;;;;;;;1.52;1.08;;;3.00;99.90;;;;;;5021148;28;20099;-82
2024/01/07 01:41:21;;;;;;;1.92;0.98;;;3.00;99.90;;;;;;5039665;28;20445;-82
2024/01/07 01:43:48;;;;;;;2.88;1.02;;;3.00;99.90;;;;;;5004354;28;21955;-82
2024/01/07 01:46:15;;;;;;;1.67;0.93;;;3.00;99.90;;;;;;5014500;28;20045;-82
2024/01/07 01:48:44;;;;;;;1.40;1.10;;;2.90;99.90;;;;;;5004746;28;20049;-82
2024/01/07 01:51:12;;;;;;;2.00;0.80;;;2.90;99.90;;;;;;5000140;28;20059;-82
2024/01/07 01:53:39;;;;;;;1.33;0.88;;;2.80;99.90;;;;;;5038837;28;20106;-83
2024/01/07 01:56:06;;;;;;;1.50;1.00;;;2.90;99.90;;;;;;5004411;28;20388;-82
2024/01/07 01:58:33;;;;;;;2.67;1.15;;;2.80;99.90;;;;;;4993471;28;20115;-81
2024/01/07 02:01:00;;;;;;;2.83;0.77;;;2.80;99.90;;;;;;4998109;28;20053;-82
2024/01/07 02:03:27;;;;;;;1.42;0.85;;;2.80;99.90;;;;;;5014185;28;20055;-82
2024/01/07 02:05:55;;;;;;;2.20;1.30;;;2.80;99.90;;;;;;4991220;28;20052;-82
2024/01/07 02:08:22;;;;;;;2.45;1.10;;;2.80;99.90;;;;;;5007098;28;20050;-82
2024/01/07 02:10:48;;;;;;;3.38;1.50;;;2.80;99.90;;;;;;5004578;28;20561;-83
2024/01/07 02:13:15;;;;;;;2.33;1.83;;;2.70;99.90;;;;;;5012666;28;20052;-82
2024/01/07 02:15:43;;;;;;;2.28;1.13;;;2.70;99.90;;;;;;5023331;28;20049;-83
2024/01/07 02:18:12;;;;;;;3.05;1.42;;;2.70;99.90;;;;;;5036314;28;20068;-82
2024/01/07 02:20:38;;;;;;;2.10;1.10;;;2.70;99.90;;;;;;5014517;28;20049;-81
2024/01/07 02:23:05;;;;;;;1.83;0.80;;;2.60;99.90;;;;;;5023323;28;20049;-83
2024/01/07 02:25:36;;;;;;;1.40;1.10;;;2.60;99.90;;;;;;5006033;28;20060;-82
2024/01/07 02:28:05;;;;;;;3.70;1.10;;;2.60;99.90;;;;;;5005590;28;20546;-83
2024/01/07 02:30:32;;;;;;;2.38;1.17;;;2.60;99.90;;;;;;5005767;28;20076;-82
2024/01/07 02:33:03;;;;;;;1.80;0.80;;;2.60;99.90;;;;;;5009907;28;20053;-82
2024/01/07 02:35:31;;;;;;;1.83;0.95;;;2.50;99.90;;;;;;5024363;28;20056;-82
2024/01/07 02:37:57;;;;;;;1.70;1.00;;;2.50;99.90;;;;;;5014212;28;20049;-82
2024/01/07 02:40:25;;;;;;;2.40;0.80;;;2.50;99.90;;;;;;5016997;28;20053;-82
2024/01/07 02:42:52;;;;;;;1.60;0.93;;;2.50;99.90;;;;;;5013890;28;20049;-82
2024/01/07 02:45:20;;;;;;;1.27;1.17;;;2.50;99.90;;;;;;5028478;28;20745;-83
2024/01/07 02:47:48;;;;;;;1.70;1.10;;;2.50;99.90;;;;;;5024782;28;20575;-83
2024/01/07 02:50:16;;;;;;;2.42;1.50;;;2.40;99.90;;;;;;5038990;28;20067;-83
2024/01/07 02:52:42;;;;;;;2.72;1.30;;;2.50;99.90;;;;;;5014660;28;20049;-81
2024/01/07 02:55:10;;;;;;;2.33;1.13;;;2.40;99.90;;;;;;5029435;28;20117;-82
2024/01/07 02:57:38;;;;;;;2.05;1.20;;;2.40;99.90;;;;;;5028935;28;20503;-82
2024/01/07 03:00:06;;;;;;;2.08;1.25;;;2.40;99.90;;;;;;5024380;28;20099;-81
2024/01/07 03:02:33;;;;;;;2.50;1.30;;;2.40;99.90;;;;;;5009137;28;20118;-82
2024/01/07 03:05:00;;;;;;;3.20;1.20;;;2.40;99.90;;;;;;5028557;28;20132;-83
2024/01/07 03:07:28;;;;;;;1.23;0.93;;;2.40;99.90;;;;;;5018660;28;20053;-81
2024/01/07 03:09:55;;;;;;;1.77;1.10;;;2.40;99.90;;;;;;5025403;28;20053;-83
2024/01/07 03:12:22;;;;;;;2.10;1.13;;;2.40;99.90;;;;;;5041116;28;20462;-81
2024/01/07 03:14:50;;;;;;;2.50;1.00;;;2.40;99.90;;;;;;5026058;28;20127;-82
2024/01/07 03:17:17;;;;;;;2.90;1.15;;;2.40;99.90;;;;;;5043334;28;20275;-83
2024/01/07 03:19:44;;;;;;;4.15;2.00;;;2.40;99.90;;;;;;5012790;28;20045;-83
2024/01/07 03:22:12;;;;;;;2.53;1.20;;;2.40;99.90;;;;;;5012909;28;20045;-83
2024/01/07 03:24:39;;;;;;;3.50;1.50;;;2.40;99.90;;;;;;5043671;28;20060;-81
2024/01/07 03:27:07;;;;;;;3.15;1.20;;;2.40;99.90;;;;;;4999132;28;20060;-82
2024/01/07 03:29:36;;;;;;;2.72;1.00;;;2.40;99.90;;;;;;5023509;28;20045;-82
2024/01/07 03:32:03;;;;;;;1.95;1.40;;;2.30;99.90;;;;;;5034824;28;20088;-82
2024/01/07 03:34:30;;;;;;;3.22;1.13;;;2.30;99.90;;;;;;5040362;28;20555;-82
2024/01/07 03:36:57;;;;;;;1.38;0.88;;;2.30;99.90;;;;;;5000334;28;20050;-82
2024/01/07 03:39:24;;;;;;;2.15;1.23;;;2.30;99.90;;;;;;5026418;28;20049;-82
2024/01/07 03:41:55;;;;;;;3.35;1.50;;;2.30;99.90;;;;;;5026525;28;20079;-81
2024/01/07 03:44:22;;;;;;;1.85;0.82;;;2.30;99.90;;;;;;5037401;28;20146;-83
2024/01/07 03:46:51;;;;;;;2.53;0.98;;;2.30;99.90;;;;;;5026993;28;20041;-82
2024/01/07 03:49:18;;;;;;;2.47;0.90;;;2.30;99.90;;;;;;5043220;28;20052;-83
2024/01/07 03:51:46;;;;;;;1.25;0.70;;;2.30;99.60;;;;;;5009268;28;20150;-83
2024/01/07 03:54:14;;;;;;;3.00;1.55;;;2.30;99.40;;;;;;5002681;28;20053;-83
2024/01/07 03:56:40;;;;;;;1.55;0.93;;;2.30;96.50;;;;;;5025111;28;20434;-83
2024/01/07 03:59:08;;;;;;;1.38;1.00;;;2.30;94.80;;;;;;5041547;28;20041;-83
2024/01/07 04:01:44;;;;;;;2.92;0.90;;;2.30;94.10;;;;;;5027568;28;20049;-82
2024/01/07 04:04:13;;;;;;;2.22;1.00;;;2.30;90.70;;;;;;5041873;28;20056;-83
2024/01/07 04:06:40;;;;;;;2.92;1.10;;;2.30;86.30;;;;;;5011330;28;20048;-82
2024/01/07 04:09:08;;;;;;;1.48;1.00;;;2.30;80.20;;;;;;5011545;28;20044;-82
2024/01/07 04:11:41;;;;;;;2.78;1.00;;;2.30;76.20;;;;;;5044096;28;20045;-82
2024/01/07 04:14:08;;;;;;;;;;;2.30;73.10;;;;;;5008310;28;20278;-82
2024/01/07 04:16:37;;;;;;;1.65;0.70;;;2.30;64.60;;;;;;5043876;28;19947;-82
2024/01/07 04:19:04;;;;;;;2.45;0.90;;;2.30;55.00;;;;;;5029915;28;20045;-82
2024/01/07 04:21:32;;;;;;;1.92;0.80;;;2.20;62.30;;;;;;5028725;28;20052;-83
2024/01/07 04:23:59;;;;;;;1.73;0.90;;;2.20;72.10;;;;;;5025621;28;20640;-82
2024/01/07 04:26:26;;;;;;;3.80;0.77;;;2.20;75.40;;;;;;5008233;28;20469;-82
2024/01/07 04:28:54;;;;;;;1.80;0.68;;;2.20;62.30;;;;;;5024453;28;20113;-82
2024/01/07 04:31:21;;;;;;;3.13;0.95;;;2.20;60.10;;;;;;5043512;28;20053;-82
2024/01/07 04:33:48;;;;;;;0.95;0.75;;;2.20;60.50;;;;;;5019164;28;20049;-83
2024/01/07 04:36:15;;;;;;;1.73;0.80;;;2.20;59.30;;;;;;5021735;28;20056;-82
2024/01/07 04:38:42;;;;;;;1.75;0.85;;;2.20;49.60;;;;;;5027691;28;20107;-83
2024/01/07 04:41:09;;;;;;;1.08;0.70;;;2.30;49.30;;;;;;5012138;28;20084;-83
2024/01/07 04:43:37;;;;;;;3.22;1.45;;;2.30;44.40;;;;;;5039987;28;20053;-82
2024/01/07 04:46:04;;;;;;;1.25;0.60;;;2.30;48.30;;;;;;5008648;28;20056;-83
2024/01/07 04:48:31;;;;;;;2.08;1.85;;;2.20;42.90;;;;;;5022746;28;20086;-82
2024/01/07 04:50:59;;;;;;;0.57;0.57;;;2.30;46.60;;;;;;5041876;28;20118;-82
2024/01/07 04:53:25;;;;;;;4.47;0.98;;;2.30;47.10;;;;;;5015782;28;20079;-82
2024/01/07 04:55:52;;;;;;;1.67;0.82;;;2.20;49.80;;;;;;5026795;28;20049;-82
2024/01/07 04:58:19;;;;;;;1.88;0.93;;;2.20;47.50;;;;;;5024304;28;20048;-83
2024/01/07 05:00:46;;;;;;;1.60;0.93;;;2.20;48.60;;;;;;5040376;28;20048;-81
2024/01/07 05:03:14;;;;;;;2.95;1.10;;;2.20;47.20;;;;;;5021013;28;20049;-82
2024/01/07 05:05:41;;;;;;;1.38;0.82;;;2.20;45.50;;;;;;5039123;28;20485;-83
2024/01/07 05:08:09;;;;;;;3.15;1.13;;;2.20;55.20;;;;;;5039959;28;20125;-83
2024/01/07 05:10:36;;;;;;;1.52;0.88;;;2.20;52.90;;;;;;5043940;28;20057;-83
2024/01/07 05:13:05;;;;;;;2.50;1.33;;;2.20;48.40;;;;;;5043265;28;20052;-83
2024/01/07 05:15:32;;;;;;;1.25;0.70;;;2.10;57.60;;;;;;5022310;28;20131;-83
2024/01/07 05:18:01;;;;;;;1.05;0.85;;;2.10;57.60;;;;;;5002963;28;20182;-83
2024/01/07 05:20:37;;;;;;;3.13;1.13;;;2.10;57.20;;;;;;5013020;28;20049;-83
2024/01/07 05:23:04;;;;;;;2.15;0.80;;;2.20;61.50;;;;;;5032978;28;20632;-84
2024/01/07 05:25:31;;;;;;;1.02;0.70;;;2.20;61.10;;;;;;5032032;28;20057;-84
2024/01/07 05:28:07;;;;;;;1.13;0.80;;;2.20;67.00;;;;;;5030298;28;20495;-84
2024/01/07 05:30:34;;;;;;;1.45;0.90;;;2.20;67.80;;;;;;5038405;28;20055;-83
2024/01/07 05:33:01;;;;;;;2.88;0.90;;;2.20;66.80;;;;;;5023844;28;20065;-84
2024/01/07 05:35:29;;;;;;;1.08;0.75;;;2.20;68.40;;;;;;5027159;28;20107;-83
2024/01/07 05:37:56;;;;;;;1.55;0.90;;;2.30;66.50;;;;;;5020491;28;20054;-85
2024/01/07 05:40:23;;;;;;;3.97;0.75;;;2.30;65.00;;;;;;5008693;28;20053;-84
2024/01/07 05:42:51;;;;;;;2.53;0.80;;;2.30;66.30;;;;;;5008823;28;20064;-83
2024/01/07 05:45:18;;;;;;;2.17;0.95;;;2.30;62.20;;;;;;5000943;28;20081;-84
2024/01/07 05:47:45;;;;;;;1.42;0.85;;;2.30;69.00;;;;;;5017211;28;20500;-84
2024/01/07 05:50:15;;;;;;;1.08;0.80;;;2.40;61.90;;;;;;5040705;28;20045;-84
2024/01/07 05:52:43;;;;;;;0.85;0.80;;;2.40;64.00;;;;;;5004936;28;20061;-84
2024/01/07 05:55:11;;;;;;;1.02;0.77;;;2.40;63.60;;;;;;5025809;28;20040;-84
2024/01/07 05:57:45;;;;;;;0.70;0.50;;;2.30;55.20;;;;;;5032650;28;20106;-83
2024/01/07 06:00:13;;;;;;;0.95;0.60;;;2.30;62.50;;;;;;5039853;28;20095;-84
2024/01/07 06:02:40;;;;;;;0.85;0.60;;;2.30;58.00;;;;;;5024905;28;20049;-81
2024/01/07 06:05:08;;;;;;;1.00;0.75;;;2.30;57.40;;;;;;5018285;28;20076;-84
2024/01/07 06:07:36;;;;;;;1.30;1.08;;;2.20;57.10;;;;;;5023549;28;20049;-84
2024/01/07 06:10:04;;;;;;;1.27;0.70;;;2.20;58.10;;;;;;5026674;28;20056;-81
2024/01/07 06:12:31;;;;;;;1.27;0.70;;;2.20;62.20;;;;;;5039948;28;20076;-82
2024/01/07 06:14:59;;;;;;;1.25;0.73;;;2.20;60.10;;;;;;5041838;28;20057;-81
2024/01/07 06:17:26;;;;;;;1.83;1.10;;;2.20;67.80;;;;;;5040058;28;20176;-82
2024/01/07 06:19:53;;;;;;;1.83;0.70;;;2.20;68.10;;;;;;5042659;28;20339;-82
2024/01/07 06:22:20;;;;;;;0.90;0.50;;;2.20;64.50;;;;;;5019245;28;20045;-82
2024/01/07 06:24:48;;;;;;;1.05;0.60;;;2.10;68.90;;;;;;5008934;28;20077;-81
2024/01/07 06:27:16;;;;;;;0.50;0.43;;;2.10;73.70;;;;;;5021303;28;20060;-82
2024/01/07 06:29:42;;;;;;;1.85;0.70;;;2.10;74.90;;;;;;5024767;28;20067;-82
2024/01/07 06:32:10;;;;;;;1.60;0.70;;;2.00;72.20;;;;;;5004673;28;20049;-81
2024/01/07 06:34:37;;;;;;;0.77;0.63;;;2.00;74.90;;;;;;5020339;28;20065;-82
2024/01/07 06:37:05;;;;;;;0.63;0.60;;;2.00;78.30;;;;;;5006499;28;20064;-82
2024/01/07 06:39:34;;;;;;;1.58;0.70;;;2.00;80.90;;;;;;5021327;28;20045;-82
2024/01/07 06:42:02;;;;;;;1.05;0.68;;;2.00;82.00;;;;;;5014112;28;20048;-82
2024/01/07 06:44:29;;;;;;;1.98;0.60;;;2.00;86.00;;;;;;5022456;28;20061;-83
2024/01/07 06:46:56;;;;;;;1.02;0.70;;;2.00;86.00;;;;;;5037052;28;20049;-83
2024/01/07 06:49:23;;;;;;;1.33;0.90;;;2.00;87.70;;;;;;5006747;28;20045;-83
2024/01/07 06:51:50;;;;;;;2.13;0.43;;;2.00;94.30;;;;;;5023229;28;20049;-83
2024/01/07 06:54:17;;;;;;;0.55;0.50;;;2.00;93.00;;;;;;5038826;28;20060;-81
2024/01/07 06:56:44;;;;;;;0.50;0.50;;;2.00;92.80;;;;;;5023969;28;20053;-81
2024/01/07 06:59:11;;;;;;;0.95;0.60;;;2.00;95.00;;;;;;5021190;28;20053;-82
2024/01/07 07:01:38;;;;;;;1.58;0.73;;;2.00;99.90;;;;;;5020305;28;20480;-82
2024/01/07 07:04:05;;;;;;;0.50;0.50;;;2.00;99.90;;;;;;4999795;28;20498;-81
2024/01/07 07:06:32;;;;;;;1.15;0.70;;;2.00;99.90;;;;;;5031593;28;20049;-83
2024/01/07 07:08:59;;;;;;;1.88;0.90;;;1.90;99.90;;;;;;5014714;28;20064;-84
2024/01/07 07:11:26;;;;;;;0.65;0.63;;;1.90;99.90;;;;;;5002384;28;20049;-83
2024/01/07 07:13:54;;;;;;;2.95;0.90;;;1.90;99.90;;;;;;5000702;28;20056;-84
2024/01/07 07:16:25;;;;;;;2.53;1.13;;;1.90;99.90;;;;;;5017768;28;20069;-83
2024/01/07 07:18:52;;;;;;;2.60;0.98;;;1.90;99.90;;;;;;5036909;28;20652;-84
2024/01/07 07:21:19;;;;;;;2.97;0.95;;;1.90;99.90;;;;;;5020299;28;20045;-83
2024/01/07 07:23:46;;;;;;;2.20;1.17;;;1.90;99.90;;;;;;5034162;28;20549;-84
2024/01/07 07:26:14;;;;;;;2.03;0.95;;;1.90;99.90;;;;;;5016290;28;20106;-83
2024/01/07 07:28:43;;;;;;;1.55;0.90;;;1.90;99.90;;;;;;5013583;28;20195;-86
2024/01/07 07:31:12;;;;;;;1.80;0.85;;;1.90;99.90;;;;;;5040194;28;20053;-86
2024/01/07 07:34:04;;;;;;;1.10;0.65;;;1.90;99.90;;;;;;5022300;28;20053;-85
2024/01/07 07:36:31;;;;;;;2.88;1.10;;;1.90;99.90;;;;;;5038046;28;20042;-85
2024/01/07 07:39:03;;;;;;;2.10;1.20;;;1.90;99.90;;;;;;5012958;28;20060;-85
2024/01/07 07:41:31;;;;;;;2.15;1.17;;;1.90;99.90;;;;;;5023514;28;20080;-83
2024/01/07 07:43:58;;;;;;;3.05;1.40;;;1.90;99.90;;;;;;5017843;28;20483;-83
2024/01/07 07:46:27;;;;;;;2.13;1.33;;;1.90;99.90;;;;;;5032796;28;20057;-85
2024/01/07 07:48:54;;;;;;;2.47;1.10;;;1.90;99.90;;;;;;5004642;28;20049;-78
2024/01/07 07:51:22;;;;;;;1.75;1.00;;;1.90;99.90;;;;;;5042790;28;20823;-83
2024/01/07 07:53:51;;;;;;;1.10;0.77;;;1.90;99.90;;;;;;5038795;28;20048;-84
2024/01/07 07:56:23;;;;;;;2.53;0.57;;;1.90;99.90;;;;;;5027666;28;20525;-84
2024/01/07 07:58:50;;;;;;;1.25;0.70;;;1.90;99.90;;;;;;5036588;28;20081;-86
2024/01/07 08:01:19;;;;;;;0.88;0.60;;;1.80;99.90;;;;;;5026755;28;20046;-86
2024/01/07 08:03:48;;;;;;;1.45;0.63;;;1.80;99.90;;;;;;5023048;28;20192;-87
2024/01/07 08:06:15;;;;;;;2.05;0.68;;;1.80;99.90;;;;;;5022251;28;20084;-86
2024/01/07 08:08:45;;;;;;;2.42;1.08;;;1.80;99.90;;;;;;5025319;28;20049;-87
2024/01/07 08:11:12;;;;;;;0.95;0.70;;;1.70;99.90;;;;;;5025955;28;20107;-86
2024/01/07 08:13:40;;;;;;;1.55;0.80;;;1.70;1.00;;;;;;5007642;28;20052;-87
2024/01/07 08:16:10;;;;;;;1.75;0.70;;;1.80;1.00;;;;;;5022719;28;20045;-86
2024/01/07 08:18:40;;;;;;;1.25;0.70;;;1.80;1.00;;;;;;5014901;28;20049;-86
2024/01/07 08:21:09;;;;;;;0.57;0.52;;;1.80;1.00;;;;;;5017035;28;20128;-87
2024/01/07 08:23:36;;;;;;;1.45;0.80;;;1.90;1.00;;;;;;5025530;28;20119;-87
2024/01/07 08:26:04;;;;;;;1.00;0.60;;;1.90;1.00;;;;;;5043710;28;20055;-87
2024/01/07 08:28:34;;;;;;;0.90;0.55;;;1.90;1.00;;;;;;5020151;28;20041;-87
2024/01/07 08:31:04;;;;;;;1.00;0.50;;;1.90;1.00;;;;;;5022887;28;20502;-85
2024/01/07 08:33:33;;;;;;;1.17;0.60;;;1.90;1.00;;;;;;5038458;28;20148;-84
2024/01/07 08:36:00;;;;;;;1.30;0.73;;;1.90;1.00;;;;;;5034634;28;20102;-84
2024/01/07 08:38:28;;;;;;;1.23;0.70;;;1.90;1.00;;;;;;5039619;28;20067;-83
2024/01/07 08:40:57;;;;;;;2.10;0.75;;;1.90;1.00;;;;;;5035342;28;20068;-84
2024/01/07 08:43:25;;;;;;;0.80;0.50;;;1.90;1.00;;;;;;5006671;28;20053;-84
2024/01/07 08:45:52;;;;;;;1.05;0.50;;;1.90;99.90;;;;;;5033873;28;20629;-84
2024/01/07 08:48:21;;;;;;;0.80;0.80;;;1.90;99.90;;;;;;5010405;28;20044;-84
2024/01/07 08:50:49;;;;;;;1.63;0.50;;;2.00;99.90;;;;;;5039687;28;20808;-84
2024/01/07 08:53:20;;;;;;;0.65;0.50;;;2.00;99.90;;;;;;5019395;28;20049;-86
2024/01/07 08:55:47;;;;;;;1.45;0.60;;;2.00;99.90;;;;;;5001542;28;20059;-83
2024/01/07 08:58:19;;;;;;;0.70;0.60;;;2.10;99.90;;;;;;5036593;28;20165;-84
2024/01/07 09:00:47;;;;;;;0.88;0.60;;;2.10;99.90;;;;;;5037207;28;20053;-84
2024/01/07 09:03:14;;;;;;;1.40;0.85;;;2.20;99.90;;;;;;5036203;28;20135;-83
2024/01/07 09:05:42;;;;;;;0.85;0.50;;;2.20;99.90;;;;;;5016506;28;20147;-85
2024/01/07 09:08:11;;;;;;;1.10;0.70;;;2.30;99.90;;;;;;5019905;28;20079;-84
2024/01/07 09:10:38;;;;;;;2.10;0.70;;;2.30;99.90;;;;;;5020601;28;20060;-84
2024/01/07 09:13:06;;;;;;;1.60;1.02;;;2.30;99.90;;;;;;5004961;28;20046;-82
2024/01/07 09:15:42;;;;;;;1.88;0.95;;;2.40;99.90;;;;;;5016768;28;20045;-84
2024/01/07 09:18:17;;;;;;;2.45;0.98;;;2.40;99.90;;;;;;5034621;28;20476;-83
2024/01/07 09:20:44;;;;;;;1.10;0.55;;;2.50;99.90;;;;;;5018362;28;20077;-83
2024/01/07 09:23:17;;;;;;;0.90;0.60;;;2.50;99.90;;;;;;5014381;28;20049;-83
2024/01/07 09:25:46;;;;;;;1.85;0.60;;;2.60;99.90;;;;;;5032274;28;20049;-82
2024/01/07 09:28:13;;;;;;;0.85;0.73;;;2.60;99.90;;;;;;5019898;28;20045;-82
2024/01/07 09:30:40;;;;;;;0.95;0.65;;;2.70;99.90;;;;;;5016387;28;20154;-83
2024/01/07 09:33:07;;;;;;;2.03;1.00;;;2.80;99.90;;;;;;5013012;28;20049;-84
2024/01/07 09:35:34;;;;;;;2.80;0.90;;;2.80;99.90;;;;;;5028536;28;20132;-84
2024/01/07 09:38:03;;;;;;;3.08;1.25;;;2.80;99.90;;;;;;5003744;28;20044;-83
2024/01/07 09:40:30;;;;;;;1.42;0.80;;;2.90;99.90;;;;;;5033721;28;20475;-83
2024/01/07 09:42:59;;;;;;;2.03;0.73;;;2.90;99.90;;;;;;5020978;28;20053;-80
2024/01/07 09:45:26;;;;;;;1.08;0.55;;;2.90;99.90;;;;;;5013415;28;20041;-84
2024/01/07 09:47:55;;;;;;;2.80;0.70;;;2.90;99.90;;;;;;5014927;28;20834;-83
2024/01/07 09:50:22;;;;;;;2.20;1.23;;;3.00;99.90;;;;;;5002362;28;20640;-80
2024/01/07 09:52:49;;;;;;;2.47;1.80;;;3.00;99.90;;;;;;5013625;28;20045;-84
2024/01/07 09:55:27;;;;;;;3.95;1.63;;;3.00;99.90;;;;;;5015738;28;20495;-83
2024/01/07 09:57:54;;;;;;;2.28;1.38;;;3.00;99.90;;;;;;5012704;28;20052;-83
2024/01/07 10:00:22;;;;;;;1.48;0.93;;;3.10;99.90;;;;;;5029691;28;20084;-83
2024/01/07 10:02:49;;;;;;;2.08;0.98;;;3.10;99.90;;;;;;5033715;28;20044;-85
2024/01/07 10:05:17;;;;;;;3.35;1.10;;;3.20;99.90;;;;;;5018647;28;20044;-83
2024/01/07 10:07:44;;;;;;;3.33;1.00;;;3.20;99.90;;;;;;5017294;28;20045;-81
2024/01/07 10:10:17;;;;;;;2.10;1.10;;;3.20;99.90;;;;;;5003503;28;20054;-82
2024/01/07 10:12:47;;;;;;;;;;;3.30;99.90;;;;;;5021186;28;20459;-81
2024/01/07 10:15:18;;;;;;;2.50;0.82;;;3.30;99.90;;;;;;5033870;28;19925;-82
2024/01/07 10:17:48;;;;;;;2.08;1.13;;;3.40;99.60;;;;;;5030638;28;20064;-82
2024/01/07 10:20:16;;;;;;;1.75;1.05;;;3.50;97.40;;;;;;5003152;28;20220;-83
2024/01/07 10:22:51;;;;;;;2.25;1.10;;;3.50;94.80;;;;;;5016111;28;20306;-84
2024/01/07 10:25:18;;;;;;;1.95;1.25;;;3.50;92.90;;;;;;5032877;28;20049;-85
2024/01/07 10:27:49;;;;;;;1.50;0.93;;;3.60;82.90;;;;;;5004726;28;20424;-83
2024/01/07 10:30:17;;;;;;;1.60;1.08;;;3.60;78.80;;;;;;5027749;28;20748;-84
2024/01/07 10:32:44;;;;;;;1.23;0.65;;;3.60;77.80;;;;;;5012554;28;20099;-83
2024/01/07 10:35:16;;;;;;;0.73;0.43;;;3.70;74.20;;;;;;5017676;28;20769;-83
2024/01/07 10:37:45;;;;;;;1.60;0.82;;;3.70;76.40;;;;;;5037506;28;20501;-83
2024/01/07 10:40:12;;;;;;;1.50;0.80;;;3.70;57.90;;;;;;5020265;28;20129;-83
2024/01/07 10:42:48;;;;;;;4.82;0.98;;;3.80;54.80;;;;;;5031907;28;20057;-85
2024/01/07 10:45:15;;;;;;;1.25;0.70;;;3.80;54.50;;;;;;5034403;28;20049;-78
2024/01/07 10:47:42;;;;;;;1.80;0.75;;;3.70;56.00;;;;;;5020244;28;20059;-77
2024/01/07 10:50:10;;;;;;;2.13;0.90;;;3.70;53.30;;;;;;5036501;28;20037;-76
2024/01/07 10:52:38;;;;;;;2.53;1.25;;;3.70;47.00;;;;;;5001310;28;20053;-76
2024/01/07 10:55:09;;;;;;;1.33;0.73;;;3.80;47.40;;;;;;5024024;28;20053;-77
2024/01/07 10:57:47;;;;;;;3.25;1.10;;;3.80;27.40;;;;;;5018156;28;20068;-76
2024/01/07 11:00:21;;;;;;;1.55;0.95;;;3.80;21.30;;;;;;5042152;28;20057;-76
2024/01/07 11:03:07;;;;;;;3.65;0.95;;;3.80;17.80;;;;;;5028339;28;20111;-76
2024/01/07 11:05:49;;;;;;;1.33;0.70;;;3.80;18.90;;;;;;5041578;28;20498;-76
2024/01/07 11:08:29;;;;;;;3.53;1.15;;;3.80;19.90;;;;;;5036197;28;20052;-77
2024/01/07 11:11:09;;;;;;;2.40;0.73;;;3.90;23.60;;;;;;5024331;28;20055;-77
2024/01/07 11:13:40;;;;;;;2.72;0.85;;;3.90;15.30;;;;;;5032681;28;20507;-76
2024/01/07 11:16:10;;;;;;;3.75;1.00;;;4.00;18.30;;;;;;5042242;28;20121;-76
2024/01/07 11:18:46;;;;;;;2.78;0.90;;;4.00;13.00;;;;;;5027249;28;20053;-76
2024/01/07 11:21:21;;;;;;;1.77;0.75;;;4.10;19.30;;;;;;5044127;28;20053;-77
2024/01/07 11:23:48;;;;;;;1.70;1.00;;;4.10;16.30;;;;;;5027045;28;20407;-77
2024/01/07 11:26:15;;;;;;;1.08;0.70;;;4.20;8.60;;;;;;5045548;28;20128;-77
2024/01/07 11:28:54;;;;;;;1.23;0.80;;;4.30;7.60;;;;;;5042795;28;20056;-77
2024/01/07 11:31:24;;;;;;;1.05;0.70;;;4.30;16.30;;;;;;5043929;28;20067;-78
2024/01/07 11:34:34;;;;;;;3.05;0.70;;;4.30;14.90;;;;;;5026832;28;20037;-85
2024/01/07 11:37:02;;;;;;;3.20;1.35;;;4.30;5.30;;;;;;5037475;28;20387;-84
2024/01/07 11:39:28;;;;;;;2.85;1.10;;;4.40;10.40;;;;;;5027983;28;20121;-84
2024/01/07 11:41:55;;;;;;;1.90;1.02;;;4.40;3.50;;;;;;5026652;28;20267;-83
2024/01/07 11:44:23;;;;;;;1.55;0.90;;;4.50;3.60;;;;;;5023071;28;20055;-83
2024/01/07 11:46:51;;;;;;;2.67;1.23;;;4.60;6.90;;;;;;5035725;28;20052;-82
2024/01/07 11:49:19;;;;;;;2.22;1.20;;;4.70;14.00;;;;;;5017031;28;20132;-82
2024/01/07 11:51:46;;;;;;;3.92;1.00;;;4.80;14.40;;;;;;5034867;28;20120;-82
2024/01/07 11:54:13;;;;;;;3.35;1.45;;;4.80;13.90;;;;;;5033702;28;20081;-81
2024/01/07 11:56:40;;;;;;;2.05;1.05;;;4.80;20.10;;;;;;5020435;28;20411;-83
2024/01/07 11:59:08;;;;;;;1.98;0.90;;;4.90;16.10;;;;;;5003337;28;20072;-83
2024/01/07 12:01:35;;;;;;;2.08;1.08;;;5.00;19.10;;;;;;5034622;28;20502;-83
2024/01/07 12:04:02;;;;;;;3.10;1.08;;;4.90;17.90;;;;;;5004982;28;20065;-84
2024/01/07 12:06:29;;;;;;;2.30;1.25;;;5.00;16.60;;;;;;5020955;28;20057;-84
2024/01/07 12:08:57;;;;;;;4.28;1.38;;;5.00;9.90;;;;;;5023045;28;20071;-83
2024/01/07 12:11:25;;;;;;;4.00;2.00;;;5.00;22.70;;;;;;5014682;28;20061;-84
2024/01/07 12:13:51;;;;;;;2.28;1.00;;;4.90;10.10;;;;;;5035895;28;20057;-81
2024/01/07 12:16:18;;;;;;;1.92;1.08;;;4.90;14.30;;;;;;5012714;28;20071;-81
2024/01/07 12:18:46;;;;;;;2.22;1.05;;;5.00;18.50;;;;;;5027507;28;20049;-81
2024/01/07 12:21:20;;;;;;;3.03;1.33;;;4.90;26.70;;;;;;5013760;28;20045;-81
2024/01/07 12:23:56;;;;;;;4.07;0.90;;;5.00;20.10;;;;;;5012870;28;20511;-82
2024/01/07 12:26:27;;;;;;;2.40;1.15;;;5.00;34.00;;;;;;5027909;28;20037;-80
2024/01/07 12:28:59;;;;;;;4.68;1.55;;;5.10;23.10;;;;;;5029668;28;20053;-81
2024/01/07 12:31:29;;;;;;;2.33;1.10;;;5.10;18.60;;;;;;4995344;28;20068;-80
2024/01/07 12:33:58;;;;;;;2.95;1.38;;;5.00;37.40;;;;;;5024124;28;20510;-81
2024/01/07 12:36:26;;;;;;;3.17;1.30;;;5.00;32.70;;;;;;5046071;28;20052;-80
2024/01/07 12:38:56;;;;;;;4.78;1.40;;;5.00;29.40;;;;;;5030873;28;20057;-81
2024/01/07 12:41:23;;;;;;;2.33;1.38;;;5.00;28.10;;;;;;5034126;28;20130;-80
2024/01/07 12:43:50;;;;;;;2.80;1.23;;;5.00;29.40;;;;;;4999721;28;20488;-80
2024/01/07 12:46:17;;;;;;;2.90;1.30;;;5.00;28.50;;;;;;4999571;28;20060;-81
2024/01/07 12:48:45;;;;;;;2.03;1.10;;;5.00;40.50;;;;;;5015751;28;20355;-81
2024/01/07 12:51:12;;;;;;;2.55;1.23;;;5.10;43.30;;;;;;5011596;28;20119;-81
2024/01/07 12:53:40;;;;;;;5.32;1.23;;;5.10;35.50;;;;;;5025286;28;20512;-81
2024/01/07 12:56:08;;;;;;;2.42;1.20;;;5.10;54.30;;;;;;4990147;28;20060;-82
2024/01/07 12:58:35;;;;;;;2.63;1.45;;;5.10;54.00;;;;;;5030008;28;20591;-82
2024/01/07 13:01:01;;;;;;;3.35;2.17;;;5.20;49.70;;;;;;4998170;28;20106;-82
2024/01/07 13:03:31;;;;;;;3.63;1.25;;;5.20;62.60;;;;;;5006022;28;20053;-81